Terminal Aerodrome Forecast
Issued by NWS

Home | Current Version | Previous Version | Text Only | Print | Product List | Glossary On
Versions: 1 2 3 4 5 6 7 8 9 10 11 12 13 14 15 16 17 18 19
000
FTUS44 KLZK 212300
TAFPBF
TAF
KPBF 212322Z 2200/2224 13005KT P6SM SCT080
     FM220400 12004KT P6SM SCT040 BKN080
     FM220800 15007KT P6SM SCT012 OVC040
      TEMPO 2210/2214 5SM BR BKN012
     FM221500 16008KT P6SM VCSH OVC012
     FM221800 19006KT P6SM VCSH OVC020 PROB30 2218/2224 5SM -SHRA
      BR=

USA.gov is the U.S. government's official web portal to all federal, state and local government web resources and services.